sensor_id;sensor_type;location;lat;lon;timestamp;temperature;humidity
71155;DHT22;59375;53.216;5.728;2023-04-03T00:00:48;2.50;99.90
71155;DHT22;59375;53.216;5.728;2023-04-03T00:03:15;2.40;99.90
71155;DHT22;59375;53.216;5.728;2023-04-03T00:05:40;2.40;99.90
71155;DHT22;59375;53.216;5.728;2023-04-03T00:08:06;2.30;99.90
71155;DHT22;59375;53.216;5.728;2023-04-03T00:10:35;2.30;99.90
71155;DHT22;59375;53.216;5.728;2023-04-03T00:13:00;2.30;99.90
71155;DHT22;59375;53.216;5.728;2023-04-03T00:15:26;2.20;99.90
71155;DHT22;59375;53.216;5.728;2023-04-03T00:17:51;2.20;99.90
71155;DHT22;59375;53.216;5.728;2023-04-03T00:20:17;2.20;99.90
71155;DHT22;59375;53.216;5.728;2023-04-03T00:22:42;2.20;99.90
71155;DHT22;59375;53.216;5.728;2023-04-03T00:25:08;2.10;99.90
71155;DHT22;59375;53.216;5.728;2023-04-03T00:27:35;2.10;99.90
71155;DHT22;59375;53.216;5.728;2023-04-03T00:30:01;2.10;99.90
71155;DHT22;59375;53.216;5.728;2023-04-03T00:32:26;2.00;99.90
71155;DHT22;59375;53.216;5.728;2023-04-03T00:34:52;2.00;99.90
71155;DHT22;59375;53.216;5.728;2023-04-03T00:37:17;1.90;99.90
71155;DHT22;59375;53.216;5.728;2023-04-03T00:39:43;1.90;99.90
71155;DHT22;59375;53.216;5.728;2023-04-03T00:42:08;1.80;99.90
71155;DHT22;59375;53.216;5.728;2023-04-03T00:46:59;1.80;99.90
71155;DHT22;59375;53.216;5.728;2023-04-03T00:49:25;1.70;99.90
71155;DHT22;59375;53.216;5.728;2023-04-03T00:51:51;1.70;99.90
71155;DHT22;59375;53.216;5.728;2023-04-03T00:54:17;1.60;99.90
71155;DHT22;59375;53.216;5.728;2023-04-03T00:56:42;1.60;99.90
71155;DHT22;59375;53.216;5.728;2023-04-03T00:59:12;1.50;99.90
71155;DHT22;59375;53.216;5.728;2023-04-03T01:01:40;1.50;99.90
71155;DHT22;59375;53.216;5.728;2023-04-03T01:04:24;1.50;99.90
71155;DHT22;59375;53.216;5.728;2023-04-03T01:06:52;1.50;99.90
71155;DHT22;59375;53.216;5.728;2023-04-03T01:09:17;1.40;99.90
71155;DHT22;59375;53.216;5.728;2023-04-03T01:11:44;1.40;99.90
71155;DHT22;59375;53.216;5.728;2023-04-03T01:14:10;1.40;99.90
71155;DHT22;59375;53.216;5.728;2023-04-03T01:16:35;1.30;99.90
71155;DHT22;59375;53.216;5.728;2023-04-03T01:19:01;1.30;99.90
71155;DHT22;59375;53.216;5.728;2023-04-03T01:24:32;1.30;99.90
71155;DHT22;59375;53.216;5.728;2023-04-03T01:26:58;1.30;99.90
71155;DHT22;59375;53.216;5.728;2023-04-03T01:29:24;1.30;99.90
71155;DHT22;59375;53.216;5.728;2023-04-03T01:31:53;1.30;99.90
71155;DHT22;59375;53.216;5.728;2023-04-03T01:34:20;1.30;99.90
71155;DHT22;59375;53.216;5.728;2023-04-03T01:36:45;1.30;99.90
71155;DHT22;59375;53.216;5.728;2023-04-03T01:39:11;1.30;99.90
71155;DHT22;59375;53.216;5.728;2023-04-03T01:41:37;1.30;99.90
71155;DHT22;59375;53.216;5.728;2023-04-03T01:44:02;1.30;99.90
71155;DHT22;59375;53.216;5.728;2023-04-03T01:46:29;1.30;99.90
71155;DHT22;59375;53.216;5.728;2023-04-03T01:48:54;1.30;99.90
71155;DHT22;59375;53.216;5.728;2023-04-03T01:51:20;1.20;99.90
71155;DHT22;59375;53.216;5.728;2023-04-03T01:53:45;1.20;99.90
71155;DHT22;59375;53.216;5.728;2023-04-03T01:56:11;1.20;99.90
71155;DHT22;59375;53.216;5.728;2023-04-03T01:58:36;1.20;99.90
71155;DHT22;59375;53.216;5.728;2023-04-03T02:01:02;1.20;99.90
71155;DHT22;59375;53.216;5.728;2023-04-03T02:03:27;1.10;99.90
71155;DHT22;59375;53.216;5.728;2023-04-03T02:05:53;1.10;99.90
71155;DHT22;59375;53.216;5.728;2023-04-03T02:08:18;1.10;99.90
71155;DHT22;59375;53.216;5.728;2023-04-03T02:10:44;1.10;99.90
71155;DHT22;59375;53.216;5.728;2023-04-03T02:13:11;1.10;99.90
71155;DHT22;59375;53.216;5.728;2023-04-03T02:15:40;1.00;99.90
71155;DHT22;59375;53.216;5.728;2023-04-03T02:18:06;1.00;99.90
71155;DHT22;59375;53.216;5.728;2023-04-03T02:20:31;1.00;99.90
71155;DHT22;59375;53.216;5.728;2023-04-03T02:22:58;1.00;99.90
71155;DHT22;59375;53.216;5.728;2023-04-03T02:25:23;1.00;99.90
71155;DHT22;59375;53.216;5.728;2023-04-03T02:27:49;0.90;99.90
71155;DHT22;59375;53.216;5.728;2023-04-03T02:30:15;0.90;99.90
71155;DHT22;59375;53.216;5.728;2023-04-03T02:32:41;0.90;99.90
71155;DHT22;59375;53.216;5.728;2023-04-03T02:35:07;0.80;99.90
71155;DHT22;59375;53.216;5.728;2023-04-03T02:37:33;0.80;99.90
71155;DHT22;59375;53.216;5.728;2023-04-03T02:39:58;0.80;99.90
71155;DHT22;59375;53.216;5.728;2023-04-03T02:42:24;0.80;99.90
71155;DHT22;59375;53.216;5.728;2023-04-03T02:44:49;0.70;99.90
71155;DHT22;59375;53.216;5.728;2023-04-03T02:47:15;0.70;99.90
71155;DHT22;59375;53.216;5.728;2023-04-03T02:49:41;0.70;99.90
71155;DHT22;59375;53.216;5.728;2023-04-03T02:52:09;0.70;99.90
71155;DHT22;59375;53.216;5.728;2023-04-03T02:54:34;0.60;99.90
71155;DHT22;59375;53.216;5.728;2023-04-03T02:57:00;0.60;99.90
71155;DHT22;59375;53.216;5.728;2023-04-03T02:59:25;0.60;99.90
71155;DHT22;59375;53.216;5.728;2023-04-03T03:01:51;0.60;99.90
71155;DHT22;59375;53.216;5.728;2023-04-03T03:04:17;0.50;99.90
71155;DHT22;59375;53.216;5.728;2023-04-03T03:06:42;0.50;99.90
71155;DHT22;59375;53.216;5.728;2023-04-03T03:09:08;0.50;99.90
71155;DHT22;59375;53.216;5.728;2023-04-03T03:11:33;0.40;99.90
71155;DHT22;59375;53.216;5.728;2023-04-03T03:13:59;0.40;99.90
71155;DHT22;59375;53.216;5.728;2023-04-03T03:16:25;0.40;99.90
71155;DHT22;59375;53.216;5.728;2023-04-03T03:18:50;0.30;99.90
71155;DHT22;59375;53.216;5.728;2023-04-03T03:21:16;0.40;99.90
71155;DHT22;59375;53.216;5.728;2023-04-03T03:23:41;0.40;99.90
71155;DHT22;59375;53.216;5.728;2023-04-03T03:26:08;0.40;99.90
71155;DHT22;59375;53.216;5.728;2023-04-03T03:28:34;0.40;99.90
71155;DHT22;59375;53.216;5.728;2023-04-03T03:31:00;0.30;99.90
71155;DHT22;59375;53.216;5.728;2023-04-03T03:33:25;0.40;99.90
71155;DHT22;59375;53.216;5.728;2023-04-03T03:35:51;0.40;99.90
71155;DHT22;59375;53.216;5.728;2023-04-03T03:38:17;0.40;99.90
71155;DHT22;59375;53.216;5.728;2023-04-03T03:40:42;0.30;99.90
71155;DHT22;59375;53.216;5.728;2023-04-03T03:43:08;0.30;99.90
71155;DHT22;59375;53.216;5.728;2023-04-03T03:45:33;0.30;99.90
71155;DHT22;59375;53.216;5.728;2023-04-03T03:47:59;0.30;99.90
71155;DHT22;59375;53.216;5.728;2023-04-03T03:50:24;0.30;99.90
71155;DHT22;59375;53.216;5.728;2023-04-03T03:52:50;0.20;99.90
71155;DHT22;59375;53.216;5.728;2023-04-03T03:55:15;0.20;99.90
71155;DHT22;59375;53.216;5.728;2023-04-03T03:57:41;0.20;99.90
71155;DHT22;59375;53.216;5.728;2023-04-03T04:00:06;0.20;99.90
71155;DHT22;59375;53.216;5.728;2023-04-03T04:02:32;0.10;99.90
71155;DHT22;59375;53.216;5.728;2023-04-03T04:04:58;0.10;99.90
71155;DHT22;59375;53.216;5.728;2023-04-03T04:07:23;0.10;99.90
71155;DHT22;59375;53.216;5.728;2023-04-03T04:09:49;0.10;99.90
71155;DHT22;59375;53.216;5.728;2023-04-03T04:12:14;0.10;99.90
71155;DHT22;59375;53.216;5.728;2023-04-03T04:14:39;0.20;99.90
71155;DHT22;59375;53.216;5.728;2023-04-03T04:17:05;0.20;99.90
71155;DHT22;59375;53.216;5.728;2023-04-03T04:19:31;0.20;99.90
71155;DHT22;59375;53.216;5.728;2023-04-03T04:21:56;0.20;99.90
71155;DHT22;59375;53.216;5.728;2023-04-03T04:24:22;0.20;99.90
71155;DHT22;59375;53.216;5.728;2023-04-03T04:26:50;0.20;99.90
71155;DHT22;59375;53.216;5.728;2023-04-03T04:29:15;0.30;99.90
71155;DHT22;59375;53.216;5.728;2023-04-03T04:31:41;0.30;99.90
71155;DHT22;59375;53.216;5.728;2023-04-03T04:34:06;0.20;99.90
71155;DHT22;59375;53.216;5.728;2023-04-03T04:36:32;0.20;99.90
71155;DHT22;59375;53.216;5.728;2023-04-03T04:38:57;0.20;99.90
71155;DHT22;59375;53.216;5.728;2023-04-03T04:41:23;0.20;99.90
71155;DHT22;59375;53.216;5.728;2023-04-03T04:43:49;0.10;99.90
71155;DHT22;59375;53.216;5.728;2023-04-03T04:46:15;0.10;99.90
71155;DHT22;59375;53.216;5.728;2023-04-03T04:48:40;0.10;99.90
71155;DHT22;59375;53.216;5.728;2023-04-03T04:51:06;0.10;99.90
71155;DHT22;59375;53.216;5.728;2023-04-03T04:53:32;0.10;99.90
71155;DHT22;59375;53.216;5.728;2023-04-03T04:55:58;0.10;99.90
71155;DHT22;59375;53.216;5.728;2023-04-03T04:58:23;0.00;99.90
71155;DHT22;59375;53.216;5.728;2023-04-03T05:00:49;0.00;99.90
71155;DHT22;59375;53.216;5.728;2023-04-03T05:03:14;-0.10;99.90
71155;DHT22;59375;53.216;5.728;2023-04-03T05:05:40;-0.10;99.90
71155;DHT22;59375;53.216;5.728;2023-04-03T05:08:06;-0.20;99.90
71155;DHT22;59375;53.216;5.728;2023-04-03T05:10:33;-0.20;99.90
71155;DHT22;59375;53.216;5.728;2023-04-03T05:12:59;-0.20;99.90
71155;DHT22;59375;53.216;5.728;2023-04-03T05:15:24;-0.20;99.90
71155;DHT22;59375;53.216;5.728;2023-04-03T05:17:50;-0.10;99.90
71155;DHT22;59375;53.216;5.728;2023-04-03T05:20:16;-0.10;99.90
71155;DHT22;59375;53.216;5.728;2023-04-03T05:22:41;0.10;99.90
71155;DHT22;59375;53.216;5.728;2023-04-03T05:25:07;0.30;99.90
71155;DHT22;59375;53.216;5.728;2023-04-03T05:27:32;0.40;99.90
71155;DHT22;59375;53.216;5.728;2023-04-03T05:29:58;0.60;99.90
71155;DHT22;59375;53.216;5.728;2023-04-03T05:32:24;0.70;99.90
71155;DHT22;59375;53.216;5.728;2023-04-03T05:34:52;0.80;99.90
71155;DHT22;59375;53.216;5.728;2023-04-03T05:37:17;0.90;99.90
71155;DHT22;59375;53.216;5.728;2023-04-03T05:39:43;0.90;99.90
71155;DHT22;59375;53.216;5.728;2023-04-03T05:42:08;0.90;99.90
71155;DHT22;59375;53.216;5.728;2023-04-03T05:44:34;0.90;99.90
71155;DHT22;59375;53.216;5.728;2023-04-03T05:47:00;1.00;99.90
71155;DHT22;59375;53.216;5.728;2023-04-03T05:49:25;1.00;99.90
71155;DHT22;59375;53.216;5.728;2023-04-03T05:51:51;1.00;99.90
71155;DHT22;59375;53.216;5.728;2023-04-03T05:54:18;1.00;99.90
71155;DHT22;59375;53.216;5.728;2023-04-03T05:56:44;1.10;99.90
71155;DHT22;59375;53.216;5.728;2023-04-03T05:59:10;1.10;99.90
71155;DHT22;59375;53.216;5.728;2023-04-03T06:01:36;1.10;99.90
71155;DHT22;59375;53.216;5.728;2023-04-03T06:04:02;1.10;99.90
71155;DHT22;59375;53.216;5.728;2023-04-03T06:09:12;1.20;99.90
71155;DHT22;59375;53.216;5.728;2023-04-03T06:11:37;1.30;99.90
71155;DHT22;59375;53.216;5.728;2023-04-03T06:14:03;1.40;99.90
71155;DHT22;59375;53.216;5.728;2023-04-03T06:16:28;1.60;99.90
71155;DHT22;59375;53.216;5.728;2023-04-03T06:18:54;1.80;99.90
71155;DHT22;59375;53.216;5.728;2023-04-03T06:21:20;2.20;99.90
71155;DHT22;59375;53.216;5.728;2023-04-03T06:23:45;2.80;99.90
71155;DHT22;59375;53.216;5.728;2023-04-03T06:26:11;3.40;99.90
71155;DHT22;59375;53.216;5.728;2023-04-03T06:28:36;3.80;99.90
71155;DHT22;59375;53.216;5.728;2023-04-03T06:31:02;3.90;99.90
71155;DHT22;59375;53.216;5.728;2023-04-03T06:33:28;4.00;99.90
71155;DHT22;59375;53.216;5.728;2023-04-03T06:35:57;3.90;99.90
71155;DHT22;59375;53.216;5.728;2023-04-03T06:38:23;3.90;99.90
71155;DHT22;59375;53.216;5.728;2023-04-03T06:40:48;3.80;99.90
71155;DHT22;59375;53.216;5.728;2023-04-03T06:43:14;3.80;99.90
71155;DHT22;59375;53.216;5.728;2023-04-03T06:45:39;3.70;99.90
71155;DHT22;59375;53.216;5.728;2023-04-03T06:48:05;3.60;99.90
71155;DHT22;59375;53.216;5.728;2023-04-03T06:50:31;3.60;99.90
71155;DHT22;59375;53.216;5.728;2023-04-03T06:52:56;3.70;99.90
71155;DHT22;59375;53.216;5.728;2023-04-03T06:55:22;3.90;99.90
71155;DHT22;59375;53.216;5.728;2023-04-03T06:57:48;4.20;99.90
71155;DHT22;59375;53.216;5.728;2023-04-03T07:00:13;4.60;99.90
71155;DHT22;59375;53.216;5.728;2023-04-03T07:02:39;5.00;99.90
71155;DHT22;59375;53.216;5.728;2023-04-03T07:05:06;5.30;99.90
71155;DHT22;59375;53.216;5.728;2023-04-03T07:07:31;5.50;99.90
71155;DHT22;59375;53.216;5.728;2023-04-03T07:09:59;5.70;99.90
71155;DHT22;59375;53.216;5.728;2023-04-03T07:12:24;5.90;99.90
71155;DHT22;59375;53.216;5.728;2023-04-03T07:14:50;6.00;99.90
71155;DHT22;59375;53.216;5.728;2023-04-03T07:17:16;6.10;99.90
71155;DHT22;59375;53.216;5.728;2023-04-03T07:19:41;6.20;99.90
71155;DHT22;59375;53.216;5.728;2023-04-03T07:22:06;6.40;99.90
71155;DHT22;59375;53.216;5.728;2023-04-03T07:24:32;6.60;99.90
71155;DHT22;59375;53.216;5.728;2023-04-03T07:26:58;6.60;99.90
71155;DHT22;59375;53.216;5.728;2023-04-03T07:29:23;6.40;99.90
71155;DHT22;59375;53.216;5.728;2023-04-03T07:31:49;6.50;99.90
71155;DHT22;59375;53.216;5.728;2023-04-03T07:34:14;6.70;99.90
71155;DHT22;59375;53.216;5.728;2023-04-03T07:36:40;6.90;99.90
71155;DHT22;59375;53.216;5.728;2023-04-03T07:39:05;7.00;99.90
71155;DHT22;59375;53.216;5.728;2023-04-03T07:41:32;7.30;99.90
71155;DHT22;59375;53.216;5.728;2023-04-03T07:43:57;7.40;99.90
71155;DHT22;59375;53.216;5.728;2023-04-03T07:46:23;7.40;99.90
71155;DHT22;59375;53.216;5.728;2023-04-03T07:48:49;7.50;99.90
71155;DHT22;59375;53.216;5.728;2023-04-03T07:51:14;7.50;99.90
71155;DHT22;59375;53.216;5.728;2023-04-03T07:53:40;7.70;99.90
71155;DHT22;59375;53.216;5.728;2023-04-03T07:56:05;7.80;99.90
71155;DHT22;59375;53.216;5.728;2023-04-03T07:58:31;7.90;99.90
71155;DHT22;59375;53.216;5.728;2023-04-03T08:00:56;7.90;99.90
71155;DHT22;59375;53.216;5.728;2023-04-03T08:03:22;8.00;99.90
71155;DHT22;59375;53.216;5.728;2023-04-03T08:05:48;8.00;99.90
71155;DHT22;59375;53.216;5.728;2023-04-03T08:08:15;8.00;99.90
71155;DHT22;59375;53.216;5.728;2023-04-03T08:10:41;8.10;99.90
71155;DHT22;59375;53.216;5.728;2023-04-03T08:13:07;8.00;99.90
71155;DHT22;59375;53.216;5.728;2023-04-03T08:15:32;8.00;99.90
71155;DHT22;59375;53.216;5.728;2023-04-03T08:17:58;8.00;99.90
71155;DHT22;59375;53.216;5.728;2023-04-03T08:20:24;8.00;99.90
71155;DHT22;59375;53.216;5.728;2023-04-03T08:22:50;8.00;99.90
71155;DHT22;59375;53.216;5.728;2023-04-03T08:25:15;8.00;99.90
71155;DHT22;59375;53.216;5.728;2023-04-03T08:27:42;8.00;99.90
71155;DHT22;59375;53.216;5.728;2023-04-03T08:30:08;8.00;99.90
71155;DHT22;59375;53.216;5.728;2023-04-03T08:32:34;8.00;99.90
71155;DHT22;59375;53.216;5.728;2023-04-03T08:35:00;8.30;99.90
71155;DHT22;59375;53.216;5.728;2023-04-03T08:37:25;8.40;99.90
71155;DHT22;59375;53.216;5.728;2023-04-03T08:39:51;8.40;99.90
71155;DHT22;59375;53.216;5.728;2023-04-03T08:44:56;8.30;99.90
71155;DHT22;59375;53.216;5.728;2023-04-03T08:47:24;8.40;99.20
71155;DHT22;59375;53.216;5.728;2023-04-03T08:49:52;8.20;99.90
71155;DHT22;59375;53.216;5.728;2023-04-03T08:52:19;7.90;99.90
71155;DHT22;59375;53.216;5.728;2023-04-03T08:54:49;7.90;99.90
71155;DHT22;59375;53.216;5.728;2023-04-03T08:57:16;7.90;99.90
71155;DHT22;59375;53.216;5.728;2023-04-03T08:59:42;8.10;99.90
71155;DHT22;59375;53.216;5.728;2023-04-03T09:02:31;8.40;99.70
71155;DHT22;59375;53.216;5.728;2023-04-03T09:04:53;8.70;99.90
71155;DHT22;59375;53.216;5.728;2023-04-03T09:07:22;8.90;99.50
71155;DHT22;59375;53.216;5.728;2023-04-03T09:09:48;9.10;97.40
71155;DHT22;59375;53.216;5.728;2023-04-03T09:12:21;9.10;97.00
71155;DHT22;59375;53.216;5.728;2023-04-03T09:17:16;8.90;94.70
71155;DHT22;59375;53.216;5.728;2023-04-03T09:22:21;9.10;98.90
71155;DHT22;59375;53.216;5.728;2023-04-03T09:24:50;9.00;96.30
71155;DHT22;59375;53.216;5.728;2023-04-03T09:27:17;8.90;95.50
71155;DHT22;59375;53.216;5.728;2023-04-03T09:29:43;8.90;98.00
71155;DHT22;59375;53.216;5.728;2023-04-03T09:34:56;9.10;98.40
71155;DHT22;59375;53.216;5.728;2023-04-03T09:37:41;9.10;96.00
71155;DHT22;59375;53.216;5.728;2023-04-03T09:42:51;9.00;95.20
71155;DHT22;59375;53.216;5.728;2023-04-03T09:45:31;9.20;91.80
71155;DHT22;59375;53.216;5.728;2023-04-03T09:48:07;9.10;86.80
71155;DHT22;59375;53.216;5.728;2023-04-03T09:50:33;8.90;88.90
71155;DHT22;59375;53.216;5.728;2023-04-03T09:53:02;8.80;92.90
71155;DHT22;59375;53.216;5.728;2023-04-03T09:55:29;8.90;90.70
71155;DHT22;59375;53.216;5.728;2023-04-03T09:58:01;9.00;90.70
71155;DHT22;59375;53.216;5.728;2023-04-03T10:00:31;9.00;95.90
71155;DHT22;59375;53.216;5.728;2023-04-03T10:02:58;9.10;92.20
71155;DHT22;59375;53.216;5.728;2023-04-03T10:08:08;9.00;93.40
71155;DHT22;59375;53.216;5.728;2023-04-03T10:10:34;8.90;89.80
71155;DHT22;59375;53.216;5.728;2023-04-03T10:13:17;8.80;93.40
71155;DHT22;59375;53.216;5.728;2023-04-03T10:16:03;8.90;90.70
71155;DHT22;59375;53.216;5.728;2023-04-03T10:18:40;8.90;90.30
71155;DHT22;59375;53.216;5.728;2023-04-03T10:21:53;9.00;85.50
71155;DHT22;59375;53.216;5.728;2023-04-03T10:24:01;9.20;91.20
71155;DHT22;59375;53.216;5.728;2023-04-03T10:27:12;9.50;92.10
71155;DHT22;59375;53.216;5.728;2023-04-03T10:32:06;10.00;90.00
71155;DHT22;59375;53.216;5.728;2023-04-03T10:34:35;10.10;79.60
71155;DHT22;59375;53.216;5.728;2023-04-03T10:37:12;10.20;87.00
71155;DHT22;59375;53.216;5.728;2023-04-03T10:39:41;10.00;88.30
71155;DHT22;59375;53.216;5.728;2023-04-03T10:42:18;10.00;81.60
71155;DHT22;59375;53.216;5.728;2023-04-03T10:47:45;10.50;77.40
71155;DHT22;59375;53.216;5.728;2023-04-03T10:55:38;10.70;72.90
71155;DHT22;59375;53.216;5.728;2023-04-03T10:58:08;10.80;79.40
71155;DHT22;59375;53.216;5.728;2023-04-03T11:00:40;10.90;67.50
71155;DHT22;59375;53.216;5.728;2023-04-03T11:05:52;11.10;76.50
71155;DHT22;59375;53.216;5.728;2023-04-03T11:10:45;11.20;74.10
71155;DHT22;59375;53.216;5.728;2023-04-03T11:13:21;11.20;70.60
71155;DHT22;59375;53.216;5.728;2023-04-03T11:15:48;11.50;72.20
71155;DHT22;59375;53.216;5.728;2023-04-03T11:18:19;11.50;70.60
71155;DHT22;59375;53.216;5.728;2023-04-03T11:21:06;11.50;76.30
71155;DHT22;59375;53.216;5.728;2023-04-03T11:23:36;11.60;67.90
71155;DHT22;59375;53.216;5.728;2023-04-03T11:26:07;11.70;70.10
71155;DHT22;59375;53.216;5.728;2023-04-03T11:28:33;11.90;66.40
71155;DHT22;59375;53.216;5.728;2023-04-03T11:31:45;12.10;66.40
71155;DHT22;59375;53.216;5.728;2023-04-03T11:34:05;11.80;61.40
71155;DHT22;59375;53.216;5.728;2023-04-03T11:36:40;11.60;62.90
71155;DHT22;59375;53.216;5.728;2023-04-03T11:39:14;11.70;66.60
71155;DHT22;59375;53.216;5.728;2023-04-03T11:41:42;11.60;66.50
71155;DHT22;59375;53.216;5.728;2023-04-03T11:46:56;12.10;62.60
71155;DHT22;59375;53.216;5.728;2023-04-03T11:52:09;12.30;65.70
71155;DHT22;59375;53.216;5.728;2023-04-03T11:54:42;12.30;71.70
71155;DHT22;59375;53.216;5.728;2023-04-03T11:58:10;12.10;63.50
71155;DHT22;59375;53.216;5.728;2023-04-03T12:00:45;11.90;66.50
71155;DHT22;59375;53.216;5.728;2023-04-03T12:02:48;12.30;69.00
71155;DHT22;59375;53.216;5.728;2023-04-03T12:05:25;12.60;66.40
71155;DHT22;59375;53.216;5.728;2023-04-03T12:10:35;12.70;63.70
71155;DHT22;59375;53.216;5.728;2023-04-03T12:13:00;13.10;61.20
71155;DHT22;59375;53.216;5.728;2023-04-03T12:15:42;13.30;60.80
71155;DHT22;59375;53.216;5.728;2023-04-03T12:20:56;12.90;60.70
71155;DHT22;59375;53.216;5.728;2023-04-03T12:23:32;12.60;61.00
71155;DHT22;59375;53.216;5.728;2023-04-03T12:26:00;12.20;63.60
71155;DHT22;59375;53.216;5.728;2023-04-03T12:28:26;12.40;60.90
71155;DHT22;59375;53.216;5.728;2023-04-03T12:30:52;13.00;65.70
71155;DHT22;59375;53.216;5.728;2023-04-03T12:35:47;13.30;60.80
71155;DHT22;59375;53.216;5.728;2023-04-03T12:40:55;13.50;59.20
71155;DHT22;59375;53.216;5.728;2023-04-03T12:48:37;13.20;66.50
71155;DHT22;59375;53.216;5.728;2023-04-03T12:51:03;13.50;59.30
71155;DHT22;59375;53.216;5.728;2023-04-03T12:53:33;13.60;56.90
71155;DHT22;59375;53.216;5.728;2023-04-03T12:56:18;13.60;56.60
71155;DHT22;59375;53.216;5.728;2023-04-03T12:58:45;13.70;57.80
71155;DHT22;59375;53.216;5.728;2023-04-03T13:01:12;13.40;58.60
71155;DHT22;59375;53.216;5.728;2023-04-03T13:03:39;12.90;54.90
71155;DHT22;59375;53.216;5.728;2023-04-03T13:06:05;13.00;63.20
71155;DHT22;59375;53.216;5.728;2023-04-03T13:08:32;12.50;66.40
71155;DHT22;59375;53.216;5.728;2023-04-03T13:13:25;12.20;63.20
71155;DHT22;59375;53.216;5.728;2023-04-03T13:15:51;12.40;60.80
71155;DHT22;59375;53.216;5.728;2023-04-03T13:18:26;12.70;61.70
71155;DHT22;59375;53.216;5.728;2023-04-03T13:20:52;12.50;60.00
71155;DHT22;59375;53.216;5.728;2023-04-03T13:23:19;12.60;61.10
71155;DHT22;59375;53.216;5.728;2023-04-03T13:25:46;13.20;60.10
71155;DHT22;59375;53.216;5.728;2023-04-03T13:28:13;13.60;58.90
71155;DHT22;59375;53.216;5.728;2023-04-03T13:30:40;13.70;57.70
71155;DHT22;59375;53.216;5.728;2023-04-03T13:33:19;13.90;57.20
71155;DHT22;59375;53.216;5.728;2023-04-03T13:35:46;14.00;58.30
71155;DHT22;59375;53.216;5.728;2023-04-03T13:40:53;13.50;56.50
71155;DHT22;59375;53.216;5.728;2023-04-03T13:43:21;13.10;59.90
71155;DHT22;59375;53.216;5.728;2023-04-03T13:48:35;12.10;69.90
71155;DHT22;59375;53.216;5.728;2023-04-03T13:51:02;12.00;62.00
71155;DHT22;59375;53.216;5.728;2023-04-03T13:53:29;11.80;62.50
71155;DHT22;59375;53.216;5.728;2023-04-03T13:58:22;11.30;64.30
71155;DHT22;59375;53.216;5.728;2023-04-03T14:00:50;11.30;68.50
71155;DHT22;59375;53.216;5.728;2023-04-03T14:03:28;11.10;68.20
71155;DHT22;59375;53.216;5.728;2023-04-03T14:05:54;10.70;74.30
71155;DHT22;59375;53.216;5.728;2023-04-03T14:08:20;10.50;75.20
71155;DHT22;59375;53.216;5.728;2023-04-03T14:10:46;10.40;80.90
71155;DHT22;59375;53.216;5.728;2023-04-03T14:13:13;10.30;78.00
71155;DHT22;59375;53.216;5.728;2023-04-03T14:15:39;10.30;80.70
71155;DHT22;59375;53.216;5.728;2023-04-03T14:18:04;10.20;78.80
71155;DHT22;59375;53.216;5.728;2023-04-03T14:20:30;10.10;83.60
71155;DHT22;59375;53.216;5.728;2023-04-03T14:22:55;10.20;76.10
71155;DHT22;59375;53.216;5.728;2023-04-03T14:25:21;10.20;83.00
71155;DHT22;59375;53.216;5.728;2023-04-03T14:27:49;10.10;83.70
71155;DHT22;59375;53.216;5.728;2023-04-03T14:30:17;10.00;86.80
71155;DHT22;59375;53.216;5.728;2023-04-03T14:32:42;10.00;80.10
71155;DHT22;59375;53.216;5.728;2023-04-03T14:35:08;9.80;78.30
71155;DHT22;59375;53.216;5.728;2023-04-03T14:37:35;10.00;84.80
71155;DHT22;59375;53.216;5.728;2023-04-03T14:40:01;10.10;87.20
71155;DHT22;59375;53.216;5.728;2023-04-03T14:42:30;10.10;84.00
71155;DHT22;59375;53.216;5.728;2023-04-03T14:44:57;10.10;80.00
71155;DHT22;59375;53.216;5.728;2023-04-03T14:47:24;9.80;82.60
71155;DHT22;59375;53.216;5.728;2023-04-03T14:49:50;9.70;88.60
71155;DHT22;59375;53.216;5.728;2023-04-03T14:52:21;9.70;85.00
71155;DHT22;59375;53.216;5.728;2023-04-03T14:54:48;9.60;87.00
71155;DHT22;59375;53.216;5.728;2023-04-03T14:57:14;9.60;85.00
71155;DHT22;59375;53.216;5.728;2023-04-03T14:59:40;9.40;85.40
71155;DHT22;59375;53.216;5.728;2023-04-03T15:02:12;9.50;84.90
71155;DHT22;59375;53.216;5.728;2023-04-03T15:04:45;9.60;82.60
71155;DHT22;59375;53.216;5.728;2023-04-03T15:07:11;9.50;86.60
71155;DHT22;59375;53.216;5.728;2023-04-03T15:09:36;9.50;91.60
71155;DHT22;59375;53.216;5.728;2023-04-03T15:12:02;9.40;92.00
71155;DHT22;59375;53.216;5.728;2023-04-03T15:14:27;9.40;94.10
71155;DHT22;59375;53.216;5.728;2023-04-03T15:16:53;9.30;96.30
71155;DHT22;59375;53.216;5.728;2023-04-03T15:19:18;9.30;97.90
71155;DHT22;59375;53.216;5.728;2023-04-03T15:21:44;9.20;96.90
71155;DHT22;59375;53.216;5.728;2023-04-03T15:24:09;9.20;98.10
71155;DHT22;59375;53.216;5.728;2023-04-03T15:26:35;9.10;98.10
71155;DHT22;59375;53.216;5.728;2023-04-03T15:29:01;9.00;98.40
71155;DHT22;59375;53.216;5.728;2023-04-03T15:31:26;8.90;99.10
71155;DHT22;59375;53.216;5.728;2023-04-03T15:33:52;8.90;99.90
71155;DHT22;59375;53.216;5.728;2023-04-03T15:36:17;8.80;99.90
71155;DHT22;59375;53.216;5.728;2023-04-03T15:38:43;9.00;99.90
71155;DHT22;59375;53.216;5.728;2023-04-03T15:41:08;8.90;99.90
71155;DHT22;59375;53.216;5.728;2023-04-03T15:43:34;8.90;99.90
71155;DHT22;59375;53.216;5.728;2023-04-03T15:46:00;8.70;99.90
71155;DHT22;59375;53.216;5.728;2023-04-03T15:48:26;8.80;99.90
71155;DHT22;59375;53.216;5.728;2023-04-03T15:50:52;8.80;99.90
71155;DHT22;59375;53.216;5.728;2023-04-03T15:53:18;8.70;99.90
71155;DHT22;59375;53.216;5.728;2023-04-03T15:55:43;8.70;99.90
71155;DHT22;59375;53.216;5.728;2023-04-03T15:58:09;8.60;99.90
71155;DHT22;59375;53.216;5.728;2023-04-03T16:00:34;8.60;99.90
71155;DHT22;59375;53.216;5.728;2023-04-03T16:03:15;8.60;99.90
71155;DHT22;59375;53.216;5.728;2023-04-03T16:05:41;8.50;99.90
71155;DHT22;59375;53.216;5.728;2023-04-03T16:08:07;8.50;99.90
71155;DHT22;59375;53.216;5.728;2023-04-03T16:10:33;8.40;99.90
71155;DHT22;59375;53.216;5.728;2023-04-03T16:12:59;8.40;99.90
71155;DHT22;59375;53.216;5.728;2023-04-03T16:15:25;8.40;99.90
71155;DHT22;59375;53.216;5.728;2023-04-03T16:17:51;8.20;99.00
71155;DHT22;59375;53.216;5.728;2023-04-03T16:20:17;8.20;99.90
71155;DHT22;59375;53.216;5.728;2023-04-03T16:22:44;8.20;99.90
71155;DHT22;59375;53.216;5.728;2023-04-03T16:25:10;8.10;99.70
71155;DHT22;59375;53.216;5.728;2023-04-03T16:27:36;8.00;99.90
71155;DHT22;59375;53.216;5.728;2023-04-03T16:30:01;7.90;99.70
71155;DHT22;59375;53.216;5.728;2023-04-03T16:32:27;7.80;99.70
71155;DHT22;59375;53.216;5.728;2023-04-03T16:34:54;7.90;99.90
71155;DHT22;59375;53.216;5.728;2023-04-03T16:37:19;8.00;99.90
71155;DHT22;59375;53.216;5.728;2023-04-03T16:39:45;8.00;99.90
71155;DHT22;59375;53.216;5.728;2023-04-03T16:42:10;8.00;99.90
71155;DHT22;59375;53.216;5.728;2023-04-03T16:44:36;8.00;99.90
71155;DHT22;59375;53.216;5.728;2023-04-03T16:47:02;7.90;99.90
71155;DHT22;59375;53.216;5.728;2023-04-03T16:49:27;7.80;99.90
71155;DHT22;59375;53.216;5.728;2023-04-03T16:51:58;7.70;99.90
71155;DHT22;59375;53.216;5.728;2023-04-03T16:54:23;7.60;99.90